• pl
  • eng

Awiacja
METAR messages from military airports. 01:00 01.01.1970

METAR EPCE 252000Z 07003KT 9999 SCT154 BKN249 13/13
Q1023 RMK 128 098 6/3 LTG DSNT E =

METAR EPDA 252000Z 04005KT 9999 SCT092 14/12
Q1023 RMK 139 086 4/4 =

METAR EPDE 252000Z VRB02KT CAVOK 16/12 Q1021 RMK 155 082 6/4=

METAR EPIR 252000Z 02004KT CAVOK 16/12 Q1022 RMK 162 078 3/3 =

METAR EPKS 252000Z 02002KT CAVOK 15/11 Q1021 RMK 151 076 2/2=

METAR COR EPLK 252000Z 08004KT CAVOK 13/12 Q1021 RMK 125 089 3/1=

METAR EPLY 252000Z 06002KT CAVOK 16/13 Q1022 RMK 155 084 5/5=

METAR EPMB 252000Z 01008KT 8000 TSRA SCT033CB BKN050 14/12 Q1022 RMK
138 087 5/3=

METAR EPMI 252000Z 00000KT CAVOK 15/10 Q1023 RMK 146 076 2/2=

METAR EPMM 252000Z 04002KT CAVOK 14/12 Q1022 RMK 142 085 5/2 =

METAR EPNA 252000Z NIL=

METAR EPOK 252000Z VRB02KT 9999 VCTS FEW096 BKN254 16/12
Q1023 RMK 158 078 7/2 =

METAR EPPR 252000Z NIL=

METAR EPPW 252000Z 07004KT CAVOK 16/14 Q1021
RMK 155 088 4/4 =

METAR EPSN 252000Z 06002KT 9999 SCT200 14/13 Q1022 RMK 135 095 4/4 =

METAR EPTM 252000Z NIL=
Awiacja.imgw.pl jest pogodowym serwisem informacyjnym
Instytutu Meteorologii i Gospodarki Wodnej Państwowego Instytutu Badawczego.
Copyright IMGW PIB 2009-2011© Wszelkie prawa zastrzeżone.